createdAt,value
2018-07-02T00:00:47.448Z,41.10
2018-07-02T00:03:15.813Z,41.10
2018-07-02T00:05:55.456Z,41.40
2018-07-02T00:08:23.769Z,41.70
2018-07-02T00:10:52.179Z,41.80
2018-07-02T00:13:20.525Z,41.70
2018-07-02T00:15:48.909Z,41.70
2018-07-02T00:18:19.120Z,41.90
2018-07-02T00:20:47.464Z,42.10
2018-07-02T00:23:15.832Z,42.20
2018-07-02T00:25:44.233Z,42.50
2018-07-02T00:28:12.560Z,42.20
2018-07-02T00:35:37.056Z,42.50
2018-07-02T00:38:05.366Z,42.50
2018-07-02T00:43:27.611Z,43.10
2018-07-02T00:45:56.066Z,43.20
2018-07-02T00:48:24.382Z,44.10
2018-07-02T00:50:52.712Z,43.70
2018-07-02T00:53:21.109Z,43.20
2018-07-02T00:55:49.546Z,43.60
2018-07-02T00:58:17.905Z,43.50
2018-07-02T01:00:46.234Z,43.30
2018-07-02T01:03:14.599Z,43.80
2018-07-02T01:11:29.802Z,44.00
2018-07-02T01:13:58.136Z,44.20
2018-07-02T01:16:26.467Z,44.00
2018-07-02T01:18:54.806Z,44.10
2018-07-02T01:21:23.846Z,44.20
2018-07-02T01:23:52.184Z,44.20
2018-07-02T01:26:20.550Z,44.10
2018-07-02T01:28:48.865Z,44.30
2018-07-02T01:39:31.418Z,45.40
2018-07-02T01:41:59.791Z,45.30
2018-07-02T01:44:28.121Z,45.40
2018-07-02T01:46:56.467Z,45.40
2018-07-02T01:49:24.894Z,45.40
2018-07-02T01:51:53.453Z,45.60
2018-07-02T01:54:21.796Z,45.60
2018-07-02T01:56:50.222Z,45.80
2018-07-02T02:02:25.208Z,46.10
2018-07-02T02:04:53.597Z,47.00
2018-07-02T02:07:22.889Z,46.50
2018-07-02T02:09:51.236Z,46.70
2018-07-02T02:12:19.576Z,46.60
2018-07-02T02:14:47.913Z,46.90
2018-07-02T02:17:16.252Z,47.20
2018-07-02T02:19:44.597Z,47.10
2018-07-02T02:22:12.977Z,47.20
2018-07-02T02:24:44.757Z,47.10
2018-07-02T02:27:13.125Z,47.10
2018-07-02T02:29:41.455Z,47.20
2018-07-02T02:34:38.333Z,47.20
2018-07-02T02:37:07.405Z,47.80
2018-07-02T02:39:36.401Z,47.60
2018-07-02T02:42:05.842Z,47.80
2018-07-02T02:44:34.827Z,47.70
2018-07-02T02:53:08.433Z,48.40
2018-07-02T02:58:06.581Z,48.20
2018-07-02T03:00:35.702Z,48.90
2018-07-02T03:03:04.664Z,48.60
2018-07-02T03:05:33.028Z,48.60
2018-07-02T03:08:01.396Z,49.00
2018-07-02T03:10:29.713Z,49.10
2018-07-02T03:12:58.031Z,48.80
2018-07-02T03:15:26.716Z,49.10
2018-07-02T03:17:55.022Z,48.80
2018-07-02T03:20:23.411Z,49.10
2018-07-02T03:22:51.714Z,49.50
2018-07-02T03:25:20.052Z,49.80
2018-07-02T03:27:48.392Z,49.50
2018-07-02T03:30:16.772Z,49.70
2018-07-02T03:32:45.115Z,49.60
2018-07-02T03:35:13.504Z,49.80
2018-07-02T03:37:55.160Z,50.00
2018-07-02T03:40:23.558Z,50.00
2018-07-02T03:42:51.860Z,49.80
2018-07-02T03:45:20.209Z,50.10
2018-07-02T03:47:48.582Z,50.00
2018-07-02T03:50:16.945Z,50.00
2018-07-02T03:52:45.329Z,50.10
2018-07-02T03:55:13.689Z,50.30
2018-07-02T03:57:42.079Z,50.00
2018-07-02T04:00:15.958Z,50.30
2018-07-02T04:05:12.395Z,50.40
2018-07-02T04:07:40.765Z,50.10
2018-07-02T04:10:09.100Z,50.00
2018-07-02T04:12:37.406Z,50.10
2018-07-02T04:15:05.756Z,50.20
2018-07-02T04:20:02.181Z,50.60
2018-07-02T04:22:31.600Z,50.60
2018-07-02T04:24:59.949Z,50.30
2018-07-02T04:27:28.287Z,50.20
2018-07-02T04:29:56.608Z,50.60
2018-07-02T04:32:24.943Z,50.40
2018-07-02T04:34:53.334Z,50.50
2018-07-02T04:37:21.723Z,50.30
2018-07-02T04:39:50.111Z,50.30
2018-07-02T04:42:18.480Z,50.50
2018-07-02T04:44:58.840Z,50.60
2018-07-02T04:47:27.177Z,50.80
2018-07-02T04:49:55.546Z,50.40
2018-07-02T04:52:23.957Z,50.60
2018-07-02T04:54:52.325Z,51.20
2018-07-02T04:57:20.789Z,50.90
2018-07-02T04:59:49.208Z,50.60
2018-07-02T05:04:45.532Z,50.30
2018-07-02T05:07:22.172Z,50.60
2018-07-02T05:09:50.461Z,50.70
2018-07-02T05:12:18.799Z,50.50
2018-07-02T05:14:47.146Z,50.10
2018-07-02T05:17:15.483Z,50.10
2018-07-02T05:19:43.824Z,50.30
2018-07-02T05:22:12.137Z,49.90
2018-07-02T05:24:40.572Z,49.80
2018-07-02T05:27:08.929Z,49.90
2018-07-02T05:29:37.997Z,49.60
2018-07-02T05:32:06.383Z,48.30
2018-07-02T05:34:34.748Z,49.10
2018-07-02T05:37:03.176Z,48.50
2018-07-02T05:39:31.533Z,48.70
2018-07-02T05:41:59.861Z,48.80
2018-07-02T05:44:28.260Z,49.20
2018-07-02T05:46:56.557Z,48.60
2018-07-02T05:49:24.884Z,48.40
2018-07-02T05:51:53.276Z,47.80
2018-07-02T05:54:21.640Z,48.30
2018-07-02T05:56:50.002Z,47.70
2018-07-02T05:59:18.391Z,48.00
2018-07-02T06:01:46.769Z,47.40
2018-07-02T06:04:15.130Z,46.70
2018-07-02T06:06:43.499Z,46.90
2018-07-02T06:09:12.958Z,47.20
2018-07-02T06:11:41.302Z,46.80
2018-07-02T06:14:10.557Z,46.60
2018-07-02T06:16:39.054Z,46.40
2018-07-02T06:19:07.566Z,46.50
2018-07-02T06:21:35.900Z,46.40
2018-07-02T06:24:04.445Z,46.30
2018-07-02T06:26:32.760Z,46.90
2018-07-02T06:29:01.137Z,46.20
2018-07-02T06:31:29.506Z,45.50
2018-07-02T06:33:57.856Z,44.90
2018-07-02T06:36:40.220Z,45.10
2018-07-02T06:39:09.529Z,45.00
2018-07-02T06:41:37.887Z,44.60
2018-07-02T06:44:06.293Z,44.00
2018-07-02T06:46:34.631Z,43.90
2018-07-02T06:49:03.114Z,43.80
2018-07-02T06:51:31.510Z,43.50
2018-07-02T06:53:59.865Z,42.90
2018-07-02T06:56:28.281Z,42.90
2018-07-02T06:59:09.709Z,42.70
2018-07-02T07:01:38.109Z,42.80
2018-07-02T07:04:06.488Z,41.70
2018-07-02T07:06:34.871Z,41.10
2018-07-02T07:09:03.236Z,40.70
2018-07-02T07:11:31.630Z,41.00
2018-07-02T07:14:00.077Z,40.00
2018-07-02T07:16:28.490Z,40.40
2018-07-02T07:18:57.125Z,39.90
2018-07-02T07:21:44.328Z,39.80
2018-07-02T07:24:12.700Z,39.40
2018-07-02T07:26:41.162Z,38.70
2018-07-02T07:29:09.599Z,39.00
2018-07-02T07:31:38.021Z,39.10
2018-07-02T07:34:06.416Z,35.80
2018-07-02T07:36:35.434Z,35.60
2018-07-02T07:41:34.136Z,35.80
2018-07-02T07:44:08.735Z,34.80
2018-07-02T07:46:37.103Z,33.40
2018-07-02T07:49:05.430Z,34.20
2018-07-02T07:51:33.936Z,33.00
2018-07-02T07:54:02.274Z,32.90
2018-07-02T07:56:30.588Z,33.10
2018-07-02T07:58:58.991Z,32.10
2018-07-02T08:01:27.303Z,32.00
2018-07-02T08:03:55.723Z,32.80
2018-07-02T08:09:30.728Z,31.10
2018-07-02T08:11:59.028Z,31.90
2018-07-02T08:14:27.392Z,31.00
2018-07-02T08:16:55.737Z,30.10
2018-07-02T08:19:24.067Z,30.50
2018-07-02T08:21:52.751Z,29.60
2018-07-02T08:24:21.056Z,29.70
2018-07-02T08:26:49.372Z,30.70
2018-07-02T08:29:17.768Z,30.80
2018-07-02T08:31:52.524Z,30.50
2018-07-02T08:34:20.908Z,29.50
2018-07-02T08:36:49.407Z,30.00
2018-07-02T08:39:17.764Z,29.50
2018-07-02T08:41:46.151Z,29.10
2018-07-02T08:44:14.495Z,29.70
2018-07-02T08:46:42.855Z,29.30
2018-07-02T08:49:11.417Z,30.30
2018-07-02T08:51:40.081Z,30.30
2018-07-02T08:54:09.222Z,28.90
2018-07-02T08:56:37.648Z,29.10
2018-07-02T08:59:05.987Z,27.60
2018-07-02T09:01:34.700Z,27.80
2018-07-02T09:04:03.037Z,27.50
2018-07-02T09:06:31.405Z,26.90
2018-07-02T09:08:59.705Z,27.60
2018-07-02T09:11:28.024Z,27.20
2018-07-02T09:13:56.366Z,26.40
2018-07-02T09:22:09.896Z,26.60
2018-07-02T09:24:38.312Z,26.30
2018-07-02T09:27:06.701Z,26.40
2018-07-02T09:29:35.154Z,26.60
2018-07-02T09:32:03.555Z,26.50
2018-07-02T09:34:31.974Z,26.20
2018-07-02T09:37:00.370Z,26.50
2018-07-02T09:39:28.707Z,26.70
2018-07-02T09:41:57.110Z,27.40
2018-07-02T09:47:34.361Z,26.60
2018-07-02T09:50:02.816Z,26.20
2018-07-02T09:52:31.250Z,26.70
2018-07-02T09:54:59.672Z,27.30
2018-07-02T09:57:27.980Z,25.40
2018-07-02T09:59:56.546Z,26.50
2018-07-02T10:02:24.729Z,24.90
2018-07-02T10:04:53.630Z,25.00
2018-07-02T10:07:22.057Z,26.00
2018-07-02T10:09:57.658Z,26.20
2018-07-02T10:12:26.073Z,25.80
2018-07-02T10:14:54.459Z,25.10
2018-07-02T10:17:22.976Z,25.90
2018-07-02T10:19:51.414Z,24.80
2018-07-02T10:22:19.845Z,25.60
2018-07-02T10:24:48.160Z,25.40
2018-07-02T10:27:16.560Z,25.10
2018-07-02T10:29:44.895Z,25.70
2018-07-02T10:32:14.793Z,25.80
2018-07-02T10:34:43.145Z,25.10
2018-07-02T10:37:11.524Z,24.90
2018-07-02T10:39:39.956Z,25.50
2018-07-02T10:42:08.308Z,26.10
2018-07-02T10:44:36.693Z,25.10
2018-07-02T10:47:05.201Z,24.70
2018-07-02T10:49:33.545Z,24.80
2018-07-02T10:52:01.907Z,25.60
2018-07-02T10:57:10.919Z,24.70
2018-07-02T10:59:39.296Z,24.80
2018-07-02T11:02:07.687Z,24.40
2018-07-02T11:04:36.081Z,23.90
2018-07-02T11:07:04.486Z,25.00
2018-07-02T11:09:32.903Z,25.60
2018-07-02T11:12:01.251Z,24.20
2018-07-02T11:14:29.630Z,23.90
2018-07-02T11:17:11.528Z,23.70
2018-07-02T11:19:39.894Z,23.90
2018-07-02T11:22:08.352Z,24.10
2018-07-02T11:24:36.705Z,23.30
2018-07-02T11:27:05.223Z,23.70
2018-07-02T11:29:33.615Z,24.20
2018-07-02T11:32:02.014Z,24.20
2018-07-02T11:34:30.354Z,24.60
2018-07-02T11:36:58.784Z,24.20
2018-07-02T11:39:27.103Z,24.70
2018-07-02T11:41:55.427Z,25.80
2018-07-02T11:44:23.782Z,24.10
2018-07-02T11:46:52.157Z,23.90
2018-07-02T11:49:20.489Z,24.30
2018-07-02T11:51:48.825Z,24.80
2018-07-02T11:54:17.150Z,24.70
2018-07-02T11:56:45.469Z,25.00
2018-07-02T11:59:13.837Z,24.30
2018-07-02T12:02:01.356Z,23.50
2018-07-02T12:04:29.729Z,23.30
2018-07-02T12:06:58.109Z,23.80
2018-07-02T12:09:26.498Z,24.20
2018-07-02T12:11:54.857Z,23.90
2018-07-02T12:14:23.280Z,24.10
2018-07-02T12:16:51.697Z,24.00
2018-07-02T12:19:20.061Z,24.40
2018-07-02T12:21:48.441Z,25.00
2018-07-02T12:27:22.498Z,24.10
2018-07-02T12:29:50.964Z,26.20
2018-07-02T12:32:19.344Z,26.30
2018-07-02T12:34:47.741Z,25.60
2018-07-02T12:37:16.187Z,25.10
2018-07-02T12:39:44.575Z,25.20
2018-07-02T12:42:12.943Z,25.00
2018-07-02T12:44:41.315Z,24.80
2018-07-02T12:47:09.736Z,25.60
2018-07-02T12:52:52.238Z,25.20
2018-07-02T12:55:20.652Z,23.90
2018-07-02T12:57:49.000Z,24.90
2018-07-02T13:00:17.393Z,24.50
2018-07-02T13:02:45.742Z,25.00
2018-07-02T13:05:14.176Z,23.30
2018-07-02T13:07:42.588Z,23.90
2018-07-02T13:10:11.547Z,23.60
2018-07-02T13:12:39.897Z,23.50
2018-07-02T13:15:27.744Z,24.50
2018-07-02T13:17:56.124Z,24.60
2018-07-02T13:20:25.497Z,25.00
2018-07-02T13:22:55.023Z,23.80
2018-07-02T13:27:51.556Z,24.00
2018-07-02T13:30:20.042Z,24.40
2018-07-02T13:32:48.399Z,23.70
2018-07-02T13:35:16.827Z,24.40
2018-07-02T13:38:01.704Z,24.60
2018-07-02T13:40:30.235Z,23.30
2018-07-02T13:42:58.632Z,23.20
2018-07-02T13:45:27.103Z,23.80
2018-07-02T13:47:56.080Z,24.00
2018-07-02T13:50:24.489Z,24.90
2018-07-02T13:52:53.263Z,24.30
2018-07-02T13:55:21.715Z,24.30
2018-07-02T13:57:50.081Z,24.80
2018-07-02T14:03:18.996Z,24.00
2018-07-02T14:05:47.407Z,24.10
2018-07-02T14:08:15.811Z,24.30
2018-07-02T14:10:44.227Z,24.40
2018-07-02T14:13:12.594Z,23.80
2018-07-02T14:15:41.006Z,24.70
2018-07-02T14:20:37.462Z,24.90
2018-07-02T14:23:05.898Z,24.20
2018-07-02T14:25:36.057Z,24.80
2018-07-02T14:28:04.425Z,25.10
2018-07-02T14:30:32.805Z,25.40
2018-07-02T14:33:01.299Z,26.00
2018-07-02T14:35:29.638Z,26.10
2018-07-02T14:37:58.806Z,25.90
2018-07-02T14:42:55.504Z,26.20
2018-07-02T14:45:24.088Z,25.60
2018-07-02T14:48:06.736Z,26.10
2018-07-02T14:50:35.130Z,25.70
2018-07-02T14:53:03.506Z,25.40
2018-07-02T14:55:32.065Z,25.10
2018-07-02T14:58:00.617Z,26.40
2018-07-02T15:00:29.484Z,25.80
2018-07-02T15:02:58.636Z,26.40
2018-07-02T15:05:27.106Z,27.00
2018-07-02T15:07:55.593Z,27.20
2018-07-02T15:10:24.076Z,26.80
2018-07-02T15:15:21.254Z,26.20
2018-07-02T15:17:49.786Z,26.80
2018-07-02T15:20:18.249Z,26.30
2018-07-02T15:22:47.645Z,25.60
2018-07-02T15:25:16.105Z,27.10
2018-07-02T15:30:13.339Z,26.80
2018-07-02T15:35:36.225Z,26.40
2018-07-02T15:38:05.756Z,26.50
2018-07-02T15:40:34.381Z,27.00
2018-07-02T15:43:03.800Z,26.40
2018-07-02T15:45:34.030Z,26.40
2018-07-02T15:48:02.690Z,27.50
2018-07-02T15:50:31.612Z,27.10
2018-07-02T15:53:00.657Z,27.70
2018-07-02T15:55:29.055Z,27.50
2018-07-02T15:57:59.592Z,27.60
2018-07-02T16:00:28.000Z,27.90
2018-07-02T16:02:56.659Z,28.10
2018-07-02T16:05:25.088Z,28.60
2018-07-02T16:07:53.454Z,28.80
2018-07-02T16:10:21.821Z,29.10
2018-07-02T16:12:50.217Z,28.60
2018-07-02T16:15:18.611Z,28.50
2018-07-02T16:17:46.996Z,28.80
2018-07-02T16:20:16.517Z,28.40
2018-07-02T16:22:44.960Z,29.00
2018-07-02T16:25:13.418Z,29.00
2018-07-02T16:27:41.836Z,28.80
2018-07-02T16:30:10.725Z,29.20
2018-07-02T16:32:39.321Z,28.60
2018-07-02T16:35:07.839Z,28.90
2018-07-02T16:37:36.203Z,29.50
2018-07-02T16:40:04.677Z,29.50
2018-07-02T16:42:39.833Z,28.80
2018-07-02T16:45:08.202Z,29.10
2018-07-02T16:47:36.632Z,28.60
2018-07-02T16:50:05.473Z,28.90
2018-07-02T16:52:33.855Z,28.40
2018-07-02T16:55:02.223Z,29.10
2018-07-02T16:57:30.820Z,29.40
2018-07-02T16:59:59.220Z,29.00
2018-07-02T17:02:27.641Z,28.80
2018-07-02T17:05:03.819Z,28.90
2018-07-02T17:07:32.176Z,28.80
2018-07-02T17:10:00.545Z,29.00
2018-07-02T17:12:28.891Z,29.50
2018-07-02T17:14:57.236Z,29.00
2018-07-02T17:17:25.588Z,29.40
2018-07-02T17:19:53.909Z,29.30
2018-07-02T17:22:22.302Z,30.00
2018-07-02T17:24:50.721Z,29.40
2018-07-02T17:27:25.069Z,29.80
2018-07-02T17:29:53.455Z,29.30
2018-07-02T17:32:21.835Z,29.30
2018-07-02T17:34:50.169Z,29.40
2018-07-02T17:37:18.526Z,29.20
2018-07-02T17:39:46.916Z,28.90
2018-07-02T17:42:15.288Z,29.40
2018-07-02T17:44:43.639Z,29.30
2018-07-02T17:47:11.984Z,29.50
2018-07-02T17:49:41.345Z,29.50
2018-07-02T17:52:09.719Z,29.90
2018-07-02T17:54:38.047Z,29.90
2018-07-02T17:57:06.499Z,29.60
2018-07-02T17:59:34.833Z,29.80
2018-07-02T18:02:03.226Z,29.40
2018-07-02T18:04:31.538Z,29.60
2018-07-02T18:07:00.765Z,29.20
2018-07-02T18:09:29.172Z,29.10
2018-07-02T18:12:07.462Z,29.60
2018-07-02T18:14:35.783Z,29.40
2018-07-02T18:17:04.137Z,29.30
2018-07-02T18:19:32.547Z,29.50
2018-07-02T18:22:00.903Z,29.80
2018-07-02T18:26:57.725Z,29.60
2018-07-02T18:29:26.426Z,29.80
2018-07-02T18:31:54.751Z,29.70
2018-07-02T18:34:23.822Z,29.70
2018-07-02T18:36:52.241Z,29.50
2018-07-02T18:39:20.773Z,29.40
2018-07-02T18:41:49.801Z,29.70
2018-07-02T18:44:18.450Z,29.90
2018-07-02T18:46:47.019Z,30.30
2018-07-02T18:49:15.906Z,30.30
2018-07-02T18:51:44.433Z,30.40
2018-07-02T18:54:12.954Z,30.60
2018-07-02T18:56:44.664Z,30.70
2018-07-02T18:59:13.089Z,30.40
2018-07-02T19:01:41.577Z,30.30
2018-07-02T19:04:10.097Z,30.40
2018-07-02T19:06:38.536Z,30.30
2018-07-02T19:09:09.427Z,30.90
2018-07-02T19:11:37.992Z,31.10
2018-07-02T19:14:06.514Z,31.10
2018-07-02T19:16:35.267Z,31.20
2018-07-02T19:19:15.688Z,31.10
2018-07-02T19:21:44.187Z,31.10
2018-07-02T19:24:14.434Z,31.70
2018-07-02T19:26:42.983Z,31.40
2018-07-02T19:29:11.475Z,31.20
2018-07-02T19:31:40.484Z,31.00
2018-07-02T19:34:08.888Z,31.20
2018-07-02T19:36:37.748Z,31.30
2018-07-02T19:39:10.362Z,31.20
2018-07-02T19:41:38.915Z,31.40
2018-07-02T19:44:08.809Z,31.60
2018-07-02T19:46:37.320Z,31.40
2018-07-02T19:49:05.864Z,31.80
2018-07-02T19:51:34.723Z,31.70
2018-07-02T19:56:31.412Z,32.10
2018-07-02T19:58:59.721Z,32.10
2018-07-02T20:01:29.103Z,32.60
2018-07-02T20:03:57.500Z,32.10
2018-07-02T20:06:26.462Z,32.10
2018-07-02T20:08:54.879Z,32.20
2018-07-02T20:11:23.368Z,32.20
2018-07-02T20:13:51.688Z,32.10
2018-07-02T20:16:20.077Z,32.10
2018-07-02T20:18:48.428Z,32.10
2018-07-02T20:21:16.781Z,32.20
2018-07-02T20:23:45.916Z,32.50
2018-07-02T20:26:14.337Z,32.10
2018-07-02T20:28:42.762Z,31.80
2018-07-02T20:31:11.116Z,31.90
2018-07-02T20:33:39.442Z,31.90
2018-07-02T20:36:07.814Z,32.40
2018-07-02T20:38:36.135Z,32.60
2018-07-02T20:41:04.477Z,33.10
2018-07-02T20:43:32.783Z,33.20
2018-07-02T20:46:07.857Z,32.70
2018-07-02T20:48:36.225Z,32.90
2018-07-02T20:51:04.593Z,33.10
2018-07-02T20:53:32.970Z,32.60
2018-07-02T20:56:01.305Z,32.60
2018-07-02T20:58:29.649Z,32.60
2018-07-02T21:00:58.012Z,33.00
2018-07-02T21:03:26.409Z,33.00
2018-07-02T21:05:54.843Z,32.70
2018-07-02T21:08:29.498Z,33.10
2018-07-02T21:10:57.822Z,33.10
2018-07-02T21:13:26.290Z,33.10
2018-07-02T21:15:54.654Z,33.30
2018-07-02T21:18:23.003Z,33.60
2018-07-02T21:20:51.399Z,34.20
2018-07-02T21:23:19.738Z,34.70
2018-07-02T21:25:48.059Z,35.30
2018-07-02T21:28:16.432Z,35.70
2018-07-02T21:30:51.132Z,35.70
2018-07-02T21:33:19.455Z,36.20
2018-07-02T21:35:47.845Z,36.50
2018-07-02T21:38:16.210Z,36.60
2018-07-02T21:40:44.642Z,36.80
2018-07-02T21:43:13.032Z,37.00
2018-07-02T21:45:41.407Z,37.30
2018-07-02T21:48:09.807Z,37.30
2018-07-02T21:50:38.177Z,37.60
2018-07-02T21:53:06.577Z,37.80
2018-07-02T21:55:34.922Z,38.00
2018-07-02T21:58:03.295Z,38.80
2018-07-02T22:00:35.111Z,39.40
2018-07-02T22:03:05.491Z,40.00
2018-07-02T22:05:33.840Z,39.90
2018-07-02T22:08:02.604Z,40.20
2018-07-02T22:10:31.090Z,40.40
2018-07-02T22:12:59.526Z,40.90
2018-07-02T22:15:48.149Z,41.40
2018-07-02T22:18:16.634Z,42.00
2018-07-02T22:20:45.140Z,42.60
2018-07-02T22:23:13.520Z,44.00
2018-07-02T22:25:41.904Z,44.90
2018-07-02T22:28:10.304Z,45.40
2018-07-02T22:30:38.683Z,45.50
2018-07-02T22:33:07.128Z,46.50
2018-07-02T22:35:35.559Z,46.80
2018-07-02T22:38:24.786Z,47.00
2018-07-02T22:40:53.168Z,46.80
2018-07-02T22:43:21.566Z,47.70
2018-07-02T22:45:50.027Z,48.70
2018-07-02T22:48:18.438Z,49.20
2018-07-02T22:50:46.856Z,49.70
2018-07-02T22:53:15.190Z,50.30
2018-07-02T22:58:17.277Z,51.50
2018-07-02T23:00:59.449Z,51.80
2018-07-02T23:03:27.883Z,51.90
2018-07-02T23:05:56.800Z,52.80
2018-07-02T23:08:26.104Z,52.80
2018-07-02T23:10:54.450Z,53.20
2018-07-02T23:13:22.856Z,53.20
2018-07-02T23:15:55.415Z,53.00
2018-07-02T23:18:24.020Z,53.20
2018-07-02T23:20:52.364Z,53.50
2018-07-02T23:23:20.755Z,54.20
2018-07-02T23:25:49.065Z,54.60
2018-07-02T23:28:17.386Z,54.60
2018-07-02T23:30:45.779Z,54.70
2018-07-02T23:33:14.167Z,54.40
2018-07-02T23:35:42.513Z,54.70
2018-07-02T23:38:10.868Z,55.40
2018-07-02T23:40:39.254Z,55.00
2018-07-02T23:43:20.004Z,55.50
2018-07-02T23:45:48.347Z,55.10
2018-07-02T23:48:16.644Z,55.60
2018-07-02T23:50:44.993Z,55.60
2018-07-02T23:53:14.464Z,55.60
2018-07-02T23:55:42.883Z,55.60
2018-07-02T23:58:11.209Z,56.00
